Time;durP1;ratioP1;P1;durP2;ratioP2;P2;SDS_P1;SDS_P2;PMS_P1;PMS_P2;Temp;Humidity;BMP_temperature;BMP_pressure;BME280_temperature;BME280_humidity;BME280_pressure;Samples;Min_cycle;Max_cycle;Signal;HPM_P1;HPM_P2
2021/06/13 00:00:15;;;;;;;19.13;11.10;;;;;9.20;101208.00;;;;5030170;28;20116;-68
2021/06/13 00:02:44;;;;;;;15.57;8.88;;;;;9.20;101195.00;;;;5029812;28;20037;-71
2021/06/13 00:05:13;;;;;;;26.73;10.27;;;;;9.20;101196.00;;;;5029387;28;20041;-71
2021/06/13 00:07:40;;;;;;;16.85;11.02;;;;;9.20;101216.00;;;;5029853;28;20465;-70
2021/06/13 00:10:08;;;;;;;29.05;14.73;;;;;9.20;101211.00;;;;5029703;28;20032;-70
2021/06/13 00:12:35;;;;;;;15.52;9.60;;;;;9.20;101209.00;;;;5029405;28;20064;-70
2021/06/13 00:15:04;;;;;;;15.05;9.80;;;;;9.10;101216.00;;;;5030045;28;20041;-69
2021/06/13 00:17:30;;;;;;;24.23;11.07;;;;;9.10;101219.00;;;;5028768;28;20040;-70
2021/06/13 00:19:57;;;;;;;14.77;8.63;;;;;9.20;101219.00;;;;5029140;28;20207;-68
2021/06/13 00:22:23;;;;;;;21.05;9.10;;;;;9.30;101225.00;;;;5028381;28;20119;-70
2021/06/13 00:24:50;;;;;;;15.07;10.77;;;;;9.30;101222.00;;;;5027774;28;20040;-69
2021/06/13 00:27:17;;;;;;;18.95;10.20;;;;;9.20;101220.00;;;;5029585;28;20141;-69
2021/06/13 00:29:43;;;;;;;17.92;10.13;;;;;9.10;101211.00;;;;5029001;28;20026;-68
2021/06/13 00:32:10;;;;;;;22.75;11.25;;;;;9.00;101220.00;;;;5029279;28;20087;-69
2021/06/13 00:34:36;;;;;;;25.80;11.45;;;;;8.90;101223.00;;;;5029231;28;20029;-70
2021/06/13 00:37:03;;;;;;;13.30;9.45;;;;;8.80;101226.00;;;;5029489;28;20493;-70
2021/06/13 00:39:29;;;;;;;20.33;10.02;;;;;8.80;101231.00;;;;5027751;28;20043;-71
2021/06/13 00:41:56;;;;;;;19.38;9.68;;;;;8.80;101239.00;;;;5029018;28;20511;-70
2021/06/13 00:44:23;;;;;;;15.55;10.73;;;;;8.80;101225.00;;;;5028532;28;20152;-69
2021/06/13 00:46:49;;;;;;;17.60;10.05;;;;;8.70;101230.00;;;;5029193;28;20018;-70
2021/06/13 00:49:16;;;;;;;16.33;10.43;;;;;8.80;101225.00;;;;5029528;28;20036;-67
2021/06/13 00:51:42;;;;;;;11.65;9.52;;;;;8.70;101234.00;;;;5029291;28;20037;-69
2021/06/13 00:54:09;;;;;;;17.85;8.52;;;;;8.70;101225.00;;;;5028834;28;20048;-71
2021/06/13 00:56:36;;;;;;;11.18;8.63;;;;;8.70;101226.00;;;;5028792;28;20539;-69
2021/06/13 00:59:02;;;;;;;12.82;9.07;;;;;8.70;101239.00;;;;5028905;28;20117;-69
2021/06/13 01:01:29;;;;;;;14.13;7.97;;;;;8.60;101240.00;;;;5028393;28;20034;-70
2021/06/13 01:03:55;;;;;;;9.07;7.53;;;;;8.60;101230.00;;;;5029302;28;20119;-69
2021/06/13 01:06:35;;;;;;;14.88;7.43;;;;;8.60;101240.00;;;;5028962;28;20033;-69
2021/06/13 01:09:06;;;;;;;12.93;7.63;;;;;8.60;101235.00;;;;5028605;28;20123;-69
2021/06/13 01:11:40;;;;;;;;;;;;;8.60;101239.00;;;;5028916;28;20049;-69
2021/06/13 01:14:33;;;;;;;10.73;6.70;;;;;8.50;101240.00;;;;5028673;28;19917;-70
2021/06/13 01:17:27;;;;;;;12.07;7.07;;;;;8.50;101239.00;;;;5028641;28;20319;-68
2021/06/13 01:20:13;;;;;;;15.00;7.43;;;;;8.50;101247.00;;;;5026982;28;20064;-68
2021/06/13 01:23:07;;;;;;;9.25;6.72;;;;;8.50;101249.00;;;;5028123;28;20045;-70
2021/06/13 01:25:58;;;;;;;12.40;7.03;;;;;8.50;101239.00;;;;5028026;28;20035;-71
2021/06/13 01:29:03;;;;;;;16.88;9.43;;;;;8.40;101250.00;;;;5027994;28;20493;-71
2021/06/13 01:31:56;;;;;;;20.27;10.10;;;;;8.40;101257.00;;;;5027804;28;20476;-71
2021/06/13 01:34:27;;;;;;;17.55;10.73;;;;;8.40;101242.00;;;;5028670;28;20044;-71
2021/06/13 01:36:55;;;;;;;18.20;10.18;;;;;8.40;101248.00;;;;5027566;28;20065;-71
2021/06/13 01:39:27;;;;;;;17.70;10.25;;;;;8.40;101260.00;;;;5027731;28;20055;-70
2021/06/13 01:41:57;;;;;;;20.75;10.10;;;;;8.40;101246.00;;;;5026279;28;20488;-70
2021/06/13 01:44:26;;;;;;;17.00;8.77;;;;;8.40;101251.00;;;;5027583;28;20029;-69
2021/06/13 01:46:53;;;;;;;12.25;8.93;;;;;8.40;101248.00;;;;5026238;28;20080;-68
2021/06/13 01:49:20;;;;;;;16.48;8.57;;;;;8.40;101249.00;;;;5026914;28;20040;-69
2021/06/13 01:51:48;;;;;;;14.13;8.48;;;;;8.40;101250.00;;;;5026225;28;20029;-71
2021/06/13 01:54:16;;;;;;;12.82;7.88;;;;;8.40;101254.00;;;;5027453;28;20033;-69
2021/06/13 01:56:48;;;;;;;14.05;8.57;;;;;8.50;101259.00;;;;5026820;28;20061;-69
2021/06/13 01:59:17;;;;;;;12.70;8.68;;;;;8.50;101261.00;;;;5027863;28;20052;-70
2021/06/13 02:01:46;;;;;;;20.58;10.55;;;;;8.40;101267.00;;;;5027303;28;20091;-68
2021/06/13 02:04:13;;;;;;;12.70;9.25;;;;;8.50;101275.00;;;;5027945;28;20032;-68
2021/06/13 02:06:44;;;;;;;13.20;9.07;;;;;8.40;101272.00;;;;5027388;28;20025;-70
2021/06/13 02:09:13;;;;;;;14.38;8.38;;;;;8.40;101278.00;;;;5028089;28;20021;-71
2021/06/13 02:11:44;;;;;;;11.13;7.28;;;;;8.40;101270.00;;;;5027176;28;20053;-70
2021/06/13 02:14:12;;;;;;;13.88;7.97;;;;;8.30;101264.00;;;;5027558;28;20058;-68
2021/06/13 02:16:44;;;;;;;13.95;10.90;;;;;8.30;101276.00;;;;5027254;28;20116;-70
2021/06/13 02:19:15;;;;;;;15.73;12.57;;;;;8.30;101273.00;;;;5027139;28;20580;-69
2021/06/13 02:21:45;;;;;;;22.17;12.18;;;;;8.30;101272.00;;;;5027528;28;20371;-69
2021/06/13 02:24:12;;;;;;;23.88;11.88;;;;;8.30;101279.00;;;;5027419;28;20063;-70
2021/06/13 02:26:40;;;;;;;17.27;12.40;;;;;8.30;101266.00;;;;5027526;28;20033;-67
2021/06/13 02:29:10;;;;;;;19.92;13.00;;;;;8.30;101261.00;;;;5027164;28;20401;-67
2021/06/13 02:31:40;;;;;;;16.70;10.38;;;;;8.30;101263.00;;;;5026736;28;20072;-69
2021/06/13 02:34:08;;;;;;;13.55;9.98;;;;;8.30;101272.00;;;;5027484;28;20033;-69
2021/06/13 02:36:35;;;;;;;21.88;9.85;;;;;8.30;101271.00;;;;5027226;28;20033;-67
2021/06/13 02:39:03;;;;;;;18.10;8.27;;;;;8.30;101268.00;;;;5026853;28;20044;-69
2021/06/13 02:41:29;;;;;;;13.60;8.70;;;;;8.30;101275.00;;;;5027349;28;20036;-68
2021/06/13 02:43:56;;;;;;;17.30;8.07;;;;;8.30;101263.00;;;;5026944;28;20028;-69
2021/06/13 02:46:22;;;;;;;12.10;8.70;;;;;8.30;101274.00;;;;5027179;28;20060;-70
2021/06/13 02:48:49;;;;;;;15.52;9.60;;;;;8.20;101273.00;;;;5026735;28;20100;-68
2021/06/13 02:51:19;;;;;;;18.05;10.43;;;;;8.10;101272.00;;;;5026858;28;20543;-70
2021/06/13 02:53:51;;;;;;;12.70;9.63;;;;;8.00;101278.00;;;;5027020;28;20040;-69
2021/06/13 02:56:23;;;;;;;10.88;8.75;;;;;7.90;101280.00;;;;5025621;28;20037;-70
2021/06/13 02:58:58;;;;;;;14.07;8.60;;;;;7.80;101280.00;;;;5026736;28;20100;-69
2021/06/13 03:01:25;;;;;;;13.95;8.98;;;;;7.80;101271.00;;;;5026710;28;20033;-68
2021/06/13 03:03:53;;;;;;;11.60;8.65;;;;;7.70;101276.00;;;;5026376;28;20439;-70
2021/06/13 03:06:21;;;;;;;17.77;8.48;;;;;7.80;101277.00;;;;5026754;28;20064;-67
2021/06/13 03:08:49;;;;;;;17.35;9.20;;;;;7.80;101275.00;;;;5026568;28;20378;-69
2021/06/13 03:11:18;;;;;;;9.00;7.45;;;;;7.70;101280.00;;;;5025264;28;20070;-67
2021/06/13 03:13:47;;;;;;;10.20;8.45;;;;;7.70;101287.00;;;;5026659;28;20045;-68
2021/06/13 03:16:15;;;;;;;15.98;8.80;;;;;7.60;101298.00;;;;5026961;28;20029;-70
2021/06/13 03:18:44;;;;;;;11.82;9.02;;;;;7.70;101274.00;;;;5026188;28;20029;-68
2021/06/13 03:21:12;;;;;;;26.35;11.32;;;;;7.60;101283.00;;;;5026214;28;20030;-70
2021/06/13 03:23:41;;;;;;;16.45;11.10;;;;;7.60;101306.00;;;;5026841;28;20033;-69
2021/06/13 03:26:11;;;;;;;18.02;11.27;;;;;7.60;101281.00;;;;5026369;28;20127;-69
2021/06/13 03:28:39;;;;;;;16.02;10.57;;;;;7.60;101288.00;;;;5026940;28;20504;-69
2021/06/13 03:31:06;;;;;;;16.13;9.68;;;;;7.60;101279.00;;;;5026359;28;20037;-69
2021/06/13 03:33:36;;;;;;;13.77;9.88;;;;;7.70;101284.00;;;;5026489;28;20033;-68
2021/06/13 03:36:03;;;;;;;14.43;10.48;;;;;7.70;101289.00;;;;5026271;28;20424;-69
2021/06/13 03:38:32;;;;;;;12.40;9.55;;;;;7.70;101284.00;;;;5026419;28;20033;-68
2021/06/13 03:40:59;;;;;;;12.02;9.52;;;;;7.70;101271.00;;;;5026521;28;20047;-70
2021/06/13 03:43:27;;;;;;;13.75;10.30;;;;;7.60;101286.00;;;;5026595;28;20500;-69
2021/06/13 03:45:54;;;;;;;13.13;8.90;;;;;7.70;101285.00;;;;5026462;28;20037;-68
2021/06/13 03:48:22;;;;;;;16.92;9.35;;;;;7.70;101273.00;;;;5026119;28;20029;-69
2021/06/13 03:50:50;;;;;;;13.13;9.90;;;;;7.70;101261.00;;;;5026238;28;20041;-68
2021/06/13 03:53:19;;;;;;;11.52;9.07;;;;;7.80;101281.00;;;;5026210;28;20029;-70
2021/06/13 03:55:46;;;;;;;11.43;7.55;;;;;7.70;101279.00;;;;5026350;28;20115;-68
2021/06/13 03:58:14;;;;;;;9.88;5.97;;;;;7.70;101270.00;;;;5026585;28;20038;-70
2021/06/13 04:00:43;;;;;;;9.45;6.70;;;;;7.70;101274.00;;;;5025369;28;20124;-68
2021/06/13 04:03:10;;;;;;;8.93;6.85;;;;;7.60;101288.00;;;;5026150;28;20104;-70
2021/06/13 04:05:40;;;;;;;10.80;7.22;;;;;7.60;101302.00;;;;5026104;28;20038;-70
2021/06/13 04:08:12;;;;;;;9.70;7.00;;;;;7.60;101287.00;;;;5026232;28;20025;-68
2021/06/13 04:10:39;;;;;;;11.45;7.03;;;;;7.60;101291.00;;;;5026061;28;20034;-67
2021/06/13 04:13:06;;;;;;;9.77;6.90;;;;;7.60;101292.00;;;;5026498;28;20046;-70
2021/06/13 04:15:33;;;;;;;10.55;7.95;;;;;7.60;101273.00;;;;5026282;28;20022;-68
2021/06/13 04:18:00;;;;;;;9.50;7.47;;;;;7.60;101289.00;;;;5025781;28;20052;-68
2021/06/13 04:20:27;;;;;;;11.85;7.38;;;;;7.60;101278.00;;;;5027211;28;20022;-68
2021/06/13 04:22:53;;;;;;;11.25;7.50;;;;;7.50;101286.00;;;;5029780;28;20065;-69
2021/06/13 04:25:21;;;;;;;19.45;10.50;;;;;7.50;101287.00;;;;5029961;28;20031;-69
2021/06/13 04:27:53;;;;;;;16.75;9.02;;;;;7.40;101286.00;;;;5029232;28;20033;-67
2021/06/13 04:30:20;;;;;;;28.50;16.52;;;;;7.40;101295.00;;;;5029515;28;20064;-69
2021/06/13 04:32:46;;;;;;;17.55;12.85;;;;;7.40;101280.00;;;;5029663;28;20029;-70
2021/06/13 04:35:13;;;;;;;24.48;16.05;;;;;7.30;101282.00;;;;5029585;28;20026;-69
2021/06/13 04:37:39;;;;;;;22.85;11.57;;;;;7.40;101289.00;;;;5029521;28;20404;-70
2021/06/13 04:40:07;;;;;;;15.57;9.82;;;;;7.40;101296.00;;;;5029199;28;20029;-67
2021/06/13 04:42:35;;;;;;;19.17;11.75;;;;;7.30;101293.00;;;;5029919;28;20408;-69
2021/06/13 04:45:06;;;;;;;16.27;11.77;;;;;7.20;101287.00;;;;5029636;28;20030;-68
2021/06/13 04:47:35;;;;;;;16.83;9.25;;;;;7.20;101297.00;;;;5028592;28;20037;-66
2021/06/13 04:50:04;;;;;;;20.90;9.90;;;;;7.20;101295.00;;;;5028685;28;20104;-66
2021/06/13 04:52:31;;;;;;;11.23;8.73;;;;;7.20;101301.00;;;;5029115;28;20400;-70
2021/06/13 04:55:23;;;;;;;17.88;8.13;;;;;7.10;101304.00;;;;5029046;28;20026;-67
2021/06/13 04:58:10;;;;;;;14.35;9.90;;;;;7.10;101302.00;;;;5028705;28;20030;-69
2021/06/13 05:00:37;;;;;;;13.25;8.70;;;;;7.10;101302.00;;;;5029510;28;20030;-68
2021/06/13 05:03:05;;;;;;;13.95;9.10;;;;;7.10;101291.00;;;;5028840;28;20049;-70
2021/06/13 05:05:32;;;;;;;22.25;9.38;;;;;7.20;101282.00;;;;5028638;28;20052;-68
2021/06/13 05:07:58;;;;;;;13.55;8.57;;;;;7.20;101280.00;;;;5028650;28;20500;-69
2021/06/13 05:10:25;;;;;;;16.42;9.85;;;;;7.30;101284.00;;;;5029621;28;20635;-69
2021/06/13 05:12:53;;;;;;;11.88;9.48;;;;;7.30;101278.00;;;;5028542;28;20091;-69
2021/06/13 05:15:21;;;;;;;12.10;8.70;;;;;7.20;101293.00;;;;5028897;28;20022;-67
2021/06/13 05:17:49;;;;;;;11.32;8.65;;;;;7.10;101290.00;;;;5028385;28;20623;-67
2021/06/13 05:20:16;;;;;;;10.82;8.27;;;;;7.10;101292.00;;;;5028199;28;20115;-67
2021/06/13 05:23:08;;;;;;;11.60;9.63;;;;;7.10;101291.00;;;;5028549;28;20021;-69
2021/06/13 05:25:37;;;;;;;12.15;8.32;;;;;7.10;101286.00;;;;5024832;28;20535;-68
2021/06/13 05:28:05;;;;;;;10.35;8.30;;;;;7.10;101287.00;;;;5028183;28;20025;-69
2021/06/13 05:30:34;;;;;;;14.63;8.00;;;;;7.10;101281.00;;;;5028156;28;20029;-69
2021/06/13 05:33:01;;;;;;;9.70;7.57;;;;;7.10;101279.00;;;;5028499;28;20030;-70
2021/06/13 05:35:28;;;;;;;12.75;7.68;;;;;7.10;101286.00;;;;5028361;28;20029;-69
2021/06/13 05:37:55;;;;;;;15.60;7.97;;;;;7.10;101278.00;;;;5028030;28;20102;-68
2021/06/13 05:40:23;;;;;;;10.05;7.38;;;;;7.10;101287.00;;;;5028070;28;20033;-69
2021/06/13 05:42:51;;;;;;;11.35;7.20;;;;;7.10;101276.00;;;;5027938;28;20108;-69
2021/06/13 05:45:20;;;;;;;11.93;6.93;;;;;7.10;101275.00;;;;5027217;28;20765;-69
2021/06/13 05:47:46;;;;;;;10.15;7.47;;;;;7.10;101273.00;;;;5028583;28;20611;-68
2021/06/13 05:50:14;;;;;;;12.45;7.32;;;;;7.10;101278.00;;;;5028057;28;20030;-67
2021/06/13 05:52:41;;;;;;;11.63;7.47;;;;;7.20;101268.00;;;;5028169;28;20036;-70
2021/06/13 05:55:09;;;;;;;11.10;7.68;;;;;7.20;101271.00;;;;5027483;28;20037;-67
2021/06/13 05:57:36;;;;;;;12.63;7.32;;;;;7.10;101277.00;;;;5028140;28;20025;-68
2021/06/13 06:00:10;;;;;;;9.40;6.55;;;;;7.10;101285.00;;;;5027870;28;20033;-67
2021/06/13 06:02:38;;;;;;;11.18;7.35;;;;;7.10;101265.00;;;;5028003;28;20025;-68
2021/06/13 06:05:06;;;;;;;11.07;7.55;;;;;7.00;101279.00;;;;5027258;28;20128;-69
2021/06/13 06:07:32;;;;;;;30.15;19.65;;;;;7.10;101269.00;;;;5027438;28;20072;-67
2021/06/13 06:09:59;;;;;;;16.98;9.77;;;;;7.10;101263.00;;;;5027582;28;20802;-68
2021/06/13 06:12:26;;;;;;;10.98;9.30;;;;;7.10;101260.00;;;;5027469;28;20564;-67
2021/06/13 06:14:52;;;;;;;13.07;9.77;;;;;7.20;101267.00;;;;5028205;28;20021;-68
2021/06/13 06:17:19;;;;;;;17.42;12.68;;;;;7.00;101252.00;;;;5027530;28;20029;-69
2021/06/13 06:19:45;;;;;;;10.80;8.52;;;;;7.00;101253.00;;;;5027685;28;20052;-69
2021/06/13 06:22:12;;;;;;;19.80;14.55;;;;;6.90;101266.00;;;;5026971;28;20067;-69
2021/06/13 06:24:38;;;;;;;20.15;10.00;;;;;6.90;101248.00;;;;5027657;28;20555;-68
2021/06/13 06:27:05;;;;;;;14.60;8.68;;;;;7.00;101259.00;;;;5027104;28;20030;-69
2021/06/13 06:29:32;;;;;;;13.95;10.05;;;;;7.10;101255.00;;;;5027418;28;20048;-69
2021/06/13 06:31:59;;;;;;;19.73;11.13;;;;;7.10;101255.00;;;;5027464;28;20056;-67
2021/06/13 06:34:26;;;;;;;18.75;11.18;;;;;7.00;101242.00;;;;5027294;28;20035;-69
2021/06/13 06:36:52;;;;;;;11.60;9.43;;;;;7.00;101247.00;;;;5026490;28;20315;-69
2021/06/13 06:39:19;;;;;;;14.82;10.05;;;;;6.90;101257.00;;;;5027809;28;20117;-69
2021/06/13 06:41:47;;;;;;;11.68;10.40;;;;;6.80;101256.00;;;;5027252;28;20025;-67
2021/06/13 06:44:14;;;;;;;14.20;8.65;;;;;6.80;101260.00;;;;5026155;28;20056;-69
2021/06/13 06:46:41;;;;;;;12.88;8.30;;;;;6.80;101251.00;;;;5027557;28;20029;-69
2021/06/13 06:49:08;;;;;;;9.77;7.50;;;;;6.80;101253.00;;;;5026603;28;20033;-67
2021/06/13 06:51:35;;;;;;;11.35;8.38;;;;;6.90;101263.00;;;;5026963;28;21112;-67
2021/06/13 06:54:02;;;;;;;12.80;8.35;;;;;6.90;101264.00;;;;5027117;28;20140;-68
2021/06/13 06:56:29;;;;;;;13.18;7.65;;;;;6.90;101261.00;;;;5027335;28;20429;-68
2021/06/13 06:58:56;;;;;;;11.77;7.82;;;;;6.80;101254.00;;;;5026774;28;20022;-68
2021/06/13 07:01:24;;;;;;;10.15;7.53;;;;;6.80;101262.00;;;;5026648;28;20873;-70
2021/06/13 07:03:50;;;;;;;16.63;7.20;;;;;6.80;101263.00;;;;5026904;28;20029;-68
2021/06/13 07:06:17;;;;;;;12.02;8.05;;;;;6.70;101265.00;;;;5027283;28;20025;-69
2021/06/13 07:08:43;;;;;;;11.98;8.25;;;;;6.80;101284.00;;;;5026856;28;20108;-67
2021/06/13 07:11:10;;;;;;;10.50;7.80;;;;;6.80;101277.00;;;;5026616;28;20032;-66
2021/06/13 07:13:37;;;;;;;11.32;8.13;;;;;6.80;101272.00;;;;5026505;28;20133;-69
2021/06/13 07:16:03;;;;;;;10.75;7.20;;;;;6.70;101286.00;;;;5026205;28;20055;-68
2021/06/13 07:18:31;;;;;;;11.60;7.22;;;;;6.80;101261.00;;;;5026427;28;20033;-66
2021/06/13 07:20:57;;;;;;;11.50;7.95;;;;;6.70;101274.00;;;;5026691;28;20099;-68
2021/06/13 07:23:24;;;;;;;11.55;8.38;;;;;6.70;101287.00;;;;5026956;28;20080;-68
2021/06/13 07:25:50;;;;;;;10.20;7.07;;;;;6.60;101285.00;;;;5026633;28;20033;-70
2021/06/13 07:28:17;;;;;;;11.00;7.25;;;;;6.70;101283.00;;;;5026891;28;20022;-70
2021/06/13 07:30:44;;;;;;;11.77;6.95;;;;;6.70;101280.00;;;;5026435;28;20051;-68
2021/06/13 07:33:10;;;;;;;11.73;6.95;;;;;6.60;101283.00;;;;5026969;28;20083;-68
2021/06/13 07:35:37;;;;;;;9.40;7.28;;;;;6.70;101270.00;;;;5026428;28;20033;-68
2021/06/13 07:38:04;;;;;;;9.48;6.22;;;;;6.70;101279.00;;;;5026205;28;20038;-69
2021/06/13 07:40:32;;;;;;;8.85;7.30;;;;;6.70;101268.00;;;;5026599;28;20022;-69
2021/06/13 07:43:00;;;;;;;10.18;7.43;;;;;6.70;101282.00;;;;5026345;28;20029;-67
2021/06/13 07:45:27;;;;;;;10.10;6.97;;;;;6.70;101278.00;;;;5025902;28;20040;-67
2021/06/13 07:47:54;;;;;;;11.30;7.78;;;;;6.70;101283.00;;;;5025927;28;20034;-69
2021/06/13 07:50:21;;;;;;;10.30;8.00;;;;;6.70;101284.00;;;;5026226;28;20041;-68
2021/06/13 07:52:49;;;;;;;9.95;7.90;;;;;6.60;101296.00;;;;5026390;28;20095;-68
2021/06/13 07:55:18;;;;;;;10.35;7.68;;;;;6.60;101275.00;;;;5026934;28;20059;-69
2021/06/13 07:57:45;;;;;;;11.60;8.07;;;;;6.60;101279.00;;;;5030505;28;20028;-68
2021/06/13 08:00:19;;;;;;;11.10;7.50;;;;;6.60;101265.00;;;;5029959;28;20400;-66
2021/06/13 08:02:47;;;;;;;10.85;7.57;;;;;6.60;101275.00;;;;5030048;28;20045;-67
2021/06/13 08:05:16;;;;;;;11.63;7.35;;;;;6.60;101280.00;;;;5029967;28;20029;-68
2021/06/13 08:07:43;;;;;;;9.07;7.80;;;;;6.50;101279.00;;;;5030090;28;20044;-70
2021/06/13 08:10:11;;;;;;;11.32;6.85;;;;;6.50;101287.00;;;;5030135;28;20091;-69
2021/06/13 08:12:40;;;;;;;13.07;7.68;;;;;6.50;101291.00;;;;5029377;28;20057;-69
2021/06/13 08:15:07;;;;;;;8.93;6.85;;;;;6.50;101289.00;;;;5029765;28;20448;-69
2021/06/13 08:17:34;;;;;;;10.18;7.63;;;;;6.40;101282.00;;;;5029814;28;20374;-68
2021/06/13 08:20:00;;;;;;;8.15;6.35;;;;;6.40;101285.00;;;;5029743;28;20048;-69
2021/06/13 08:22:28;;;;;;;8.07;6.53;;;;;6.50;101295.00;;;;5030095;28;20026;-69
2021/06/13 08:24:55;;;;;;;8.80;7.03;;;;;6.50;101294.00;;;;5029663;28;20029;-67
2021/06/13 08:27:22;;;;;;;18.38;7.30;;;;;6.50;101294.00;;;;5029378;28;20036;-67
2021/06/13 08:29:48;;;;;;;10.13;6.38;;;;;6.50;101292.00;;;;5029799;28;20045;-67
2021/06/13 08:32:15;;;;;;;8.43;6.32;;;;;6.50;101320.00;;;;5029184;28;20041;-66
2021/06/13 08:34:41;;;;;;;8.65;6.97;;;;;6.60;101321.00;;;;5029845;28;20033;-68
2021/06/13 08:37:08;;;;;;;12.10;7.50;;;;;6.50;101322.00;;;;5029569;28;20527;-68
2021/06/13 08:39:34;;;;;;;8.82;7.28;;;;;6.50;101306.00;;;;5029315;28;20025;-67
2021/06/13 08:42:01;;;;;;;12.55;7.25;;;;;6.50;101320.00;;;;5029480;28;20029;-69
2021/06/13 08:44:28;;;;;;;13.50;7.55;;;;;6.50;101322.00;;;;5029764;28;20076;-68
2021/06/13 08:46:56;;;;;;;8.80;6.65;;;;;6.60;101319.00;;;;5029615;28;20496;-68
2021/06/13 08:49:24;;;;;;;11.23;6.63;;;;;6.60;101315.00;;;;5029932;28;20466;-69
2021/06/13 08:51:52;;;;;;;8.27;6.13;;;;;6.60;101321.00;;;;5029282;28;20507;-68
2021/06/13 08:54:19;;;;;;;8.02;6.30;;;;;6.70;101329.00;;;;5027137;28;20497;-67
2021/06/13 08:56:46;;;;;;;9.18;7.32;;;;;6.70;101332.00;;;;5029105;28;20112;-67
2021/06/13 08:59:14;;;;;;;15.35;8.95;;;;;6.50;101335.00;;;;5029624;28;20037;-66
2021/06/13 09:01:41;;;;;;;19.42;10.93;;;;;6.40;101325.00;;;;5029201;28;20030;-69
2021/06/13 09:04:08;;;;;;;34.45;18.23;;;;;6.40;101323.00;;;;5028897;28;20033;-68
2021/06/13 09:06:35;;;;;;;27.33;15.10;;;;;6.40;101335.00;;;;5028285;28;20108;-68
2021/06/13 09:09:15;;;;;;;25.77;14.27;;;;;6.40;101338.00;;;;5028606;28;20029;-67
2021/06/13 09:12:03;;;;;;;23.73;13.18;;;;;6.30;101356.00;;;;5028373;28;20037;-69
2021/06/13 09:14:32;;;;;;;19.05;10.52;;;;;6.20;101372.00;;;;5029158;28;20021;-66
2021/06/13 09:17:18;;;;;;;21.73;9.55;;;;;6.20;101347.00;;;;5029569;28;20029;-68
2021/06/13 09:20:13;;;;;;;20.90;12.75;;;;;6.20;101369.00;;;;5028655;28;20034;-69
2021/06/13 09:22:42;;;;;;;22.42;14.13;;;;;6.20;101363.00;;;;5028401;28;20034;-67
2021/06/13 09:25:12;;;;;;;20.67;11.23;;;;;6.30;101370.00;;;;5028504;28;20032;-66
2021/06/13 09:27:40;;;;;;;14.55;9.20;;;;;6.30;101381.00;;;;5028013;28;20040;-69
2021/06/13 09:30:09;;;;;;;15.85;8.77;;;;;6.30;101367.00;;;;5027777;28;20033;-69
2021/06/13 09:33:05;;;;;;;14.32;7.63;;;;;6.20;101381.00;;;;5028227;28;20125;-69
2021/06/13 09:47:29;;;;;;;17.13;9.32;;;;;6.20;101388.00;;;;5104793;27;20471;-74
2021/06/13 09:49:56;;;;;;;14.55;8.38;;;;;6.10;101377.00;;;;5084240;28;20446;-74
2021/06/13 09:52:28;;;;;;;12.93;8.52;;;;;6.10;101362.00;;;;5083841;28;20027;-74
2021/06/13 09:55:11;;;;;;;16.83;9.05;;;;;6.10;101385.00;;;;5082596;28;20398;-75
2021/06/13 09:58:05;;;;;;;15.95;8.50;;;;;6.10;101390.00;;;;5083806;28;20601;-74
2021/06/13 10:00:32;;;;;;;13.23;8.15;;;;;6.20;101364.00;;;;5083737;28;20024;-75
2021/06/13 10:02:58;;;;;;;10.27;8.00;;;;;6.20;101383.00;;;;5083681;28;20028;-74
2021/06/13 10:05:24;;;;;;;14.32;8.07;;;;;6.10;101383.00;;;;5084517;28;20036;-74
2021/06/13 10:07:51;;;;;;;11.88;8.35;;;;;6.10;101400.00;;;;5083969;28;20111;-75
2021/06/13 10:10:40;;;;;;;12.40;8.10;;;;;6.10;101395.00;;;;5083730;28;20024;-74
2021/06/13 10:13:07;;;;;;;16.52;10.00;;;;;6.10;101403.00;;;;5083742;28;20028;-74
2021/06/13 10:15:36;;;;;;;16.38;11.50;;;;;6.10;101394.00;;;;5083728;28;20115;-74
2021/06/13 10:18:11;;;;;;;18.63;11.02;;;;;6.10;101404.00;;;;5082494;28;20029;-74
2021/06/13 10:20:38;;;;;;;13.52;10.18;;;;;6.10;101406.00;;;;5083718;28;20028;-74
2021/06/13 10:23:05;;;;;;;16.67;12.55;;;;;6.10;101410.00;;;;5083708;28;20030;-74
2021/06/13 10:25:31;;;;;;;22.08;14.20;;;;;6.20;101412.00;;;;5083545;28;20040;-74
2021/06/13 10:27:59;;;;;;;18.17;12.57;;;;;6.20;101403.00;;;;5083891;28;20513;-74
2021/06/13 10:30:26;;;;;;;17.40;11.25;;;;;6.20;101398.00;;;;5083348;28;20402;-74
2021/06/13 10:32:52;;;;;;;16.20;11.00;;;;;6.30;101397.00;;;;5083778;28;20391;-74
2021/06/13 10:35:19;;;;;;;13.95;10.10;;;;;6.30;101431.00;;;;5080575;28;20052;-74
2021/06/13 10:37:48;;;;;;;13.10;10.68;;;;;6.40;101416.00;;;;5063182;28;20066;-74
2021/06/13 10:40:15;;;;;;;15.07;9.85;;;;;6.40;101429.00;;;;5062875;28;20064;-74
2021/06/13 10:42:42;;;;;;;19.77;11.98;;;;;6.40;101431.00;;;;5061356;28;20119;-74
2021/06/13 10:45:11;;;;;;;15.95;11.25;;;;;6.50;101440.00;;;;5062504;28;20463;-73
2021/06/13 10:47:37;;;;;;;14.52;10.63;;;;;6.60;101432.00;;;;5054455;28;20029;-74
2021/06/13 10:50:09;;;;;;;13.77;10.80;;;;;6.70;101426.00;;;;5049616;28;20032;-74
2021/06/13 10:52:35;;;;;;;15.48;10.25;;;;;7.40;101401.00;;;;5049880;28;20652;-74
2021/06/13 10:55:04;;;;;;;14.05;9.75;;;;;8.30;101388.00;;;;5049302;28;20087;-74
2021/06/13 10:57:37;;;;;;;11.82;8.68;;;;;9.20;101364.00;;;;5049259;28;20040;-74
2021/06/13 11:00:21;;;;;;;11.57;7.75;;;;;8.80;101420.00;;;;5049449;28;20059;-74
2021/06/13 11:02:57;;;;;;;8.23;6.93;;;;;9.10;101377.00;;;;5049157;28;20223;-74
2021/06/13 11:05:43;;;;;;;11.52;6.70;;;;;10.00;101372.00;;;;5049049;28;20111;-74
2021/06/13 11:08:11;;;;;;;14.20;5.60;;;;;10.00;101369.00;;;;5049094;28;20157;-72
2021/06/13 11:10:38;;;;;;;7.97;5.35;;;;;10.70;101344.00;;;;5049574;28;20025;-73
2021/06/13 11:13:14;;;;;;;9.63;5.30;;;;;11.00;101390.00;;;;5049813;28;20025;-72
2021/06/13 11:15:42;;;;;;;9.13;5.07;;;;;10.80;101391.00;;;;5049249;28;20496;-73
2021/06/13 11:18:16;;;;;;;12.98;5.30;;;;;11.20;101373.00;;;;5049140;28;20033;-73
2021/06/13 11:20:54;;;;;;;6.07;4.65;;;;;11.90;101338.00;;;;5049277;28;20036;-74
2021/06/13 11:23:23;;;;;;;6.10;4.50;;;;;13.20;101337.00;;;;5048911;28;20079;-74
2021/06/13 11:25:52;;;;;;;13.35;5.65;;;;;12.90;101349.00;;;;5048791;28;20064;-74
2021/06/13 11:28:20;;;;;;;9.13;4.30;;;;;14.20;101289.00;;;;5048962;28;20039;-74
2021/06/13 11:30:53;;;;;;;8.10;3.88;;;;;15.90;101264.00;;;;5048532;28;20044;-74
2021/06/13 11:33:39;;;;;;;7.15;3.92;;;;;17.30;101261.00;;;;5048704;28;20029;-74
2021/06/13 11:36:21;;;;;;;4.75;4.00;;;;;17.20;101241.00;;;;5049078;28;20103;-74
2021/06/13 11:38:49;;;;;;;6.00;3.67;;;;;16.80;101235.00;;;;5048678;28;20021;-72
2021/06/13 11:41:36;;;;;;;5.45;3.30;;;;;17.60;101254.00;;;;5048121;28;20392;-73
2021/06/13 11:44:08;;;;;;;19.83;5.03;;;;;17.60;101249.00;;;;5048997;28;20029;-73
2021/06/13 11:46:41;;;;;;;6.00;3.20;;;;;17.60;101231.00;;;;5048296;28;20060;-73
2021/06/13 11:49:10;;;;;;;19.10;4.28;;;;;17.90;101230.00;;;;5048677;28;20075;-73
2021/06/13 11:51:56;;;;;;;9.10;3.22;;;;;18.80;101255.00;;;;5048554;28;20030;-73
2021/06/13 11:54:38;;;;;;;6.82;3.30;;;;;18.90;101276.00;;;;5048163;28;20430;-73
2021/06/13 11:57:25;;;;;;;5.68;2.92;;;;;19.50;101285.00;;;;5048522;28;20056;-73
2021/06/13 11:59:52;;;;;;;4.25;2.78;;;;;19.20;101295.00;;;;5034195;28;20069;-73
2021/06/13 12:02:20;;;;;;;8.05;2.80;;;;;19.50;101307.00;;;;5048392;28;20025;-73
2021/06/13 12:04:47;;;;;;;5.25;2.75;;;;;19.10;101313.00;;;;5048352;28;20583;-73
2021/06/13 12:07:16;;;;;;;4.85;2.10;;;;;19.20;101295.00;;;;5048318;28;20107;-73
2021/06/13 12:09:44;;;;;;;3.30;2.38;;;;;19.70;101306.00;;;;5048836;28;20082;-73
2021/06/13 12:12:13;;;;;;;5.45;2.38;;;;;19.40;101285.00;;;;5047797;28;20025;-74
2021/06/13 12:14:43;;;;;;;4.05;2.40;;;;;19.90;101279.00;;;;5047685;28;20040;-74
2021/06/13 12:17:25;;;;;;;11.60;3.20;;;;;20.90;101282.00;;;;5048186;28;20025;-74
2021/06/13 12:19:55;;;;;;;5.28;2.28;;;;;21.00;101321.00;;;;5048329;28;20037;-74
2021/06/13 12:27:48;;;;;;;13.43;2.53;;;;;20.70;101295.00;;;;5047428;28;20037;-73
2021/06/13 12:30:26;;;;;;;4.95;2.70;;;;;21.50;101280.00;;;;5047594;28;20051;-73
2021/06/13 12:32:57;;;;;;;7.53;2.78;;;;;21.50;101280.00;;;;5047770;28;20485;-74
2021/06/13 12:35:32;;;;;;;8.10;2.72;;;;;21.70;101303.00;;;;5047205;28;20052;-73